createdAt,value
2017-10-27T00:00:18.223Z,1014.27
2017-10-27T00:01:18.189Z,1014.31
2017-10-27T00:02:18.155Z,1014.32
2017-10-27T00:03:18.120Z,1014.30
2017-10-27T00:04:18.086Z,1014.30
2017-10-27T00:05:18.054Z,1014.39
2017-10-27T00:06:18.018Z,1014.39
2017-10-27T00:07:18.003Z,1014.42
2017-10-27T00:08:17.949Z,1014.41
2017-10-27T00:09:18.157Z,1014.38
2017-10-27T00:10:17.881Z,1014.36
2017-10-27T00:11:17.848Z,1014.31
2017-10-27T00:12:17.813Z,1014.33
2017-10-27T00:13:17.780Z,1014.36
2017-10-27T00:14:17.745Z,1014.32
2017-10-27T00:15:17.713Z,1014.30
2017-10-27T00:16:17.676Z,1014.30
2017-10-27T00:17:17.649Z,1014.31
2017-10-27T00:18:17.607Z,1014.23
2017-10-27T00:19:17.575Z,1014.28
2017-10-27T00:20:17.542Z,1014.25
2017-10-27T00:21:17.507Z,1014.29
2017-10-27T00:22:17.477Z,1014.33
2017-10-27T00:23:17.438Z,1014.30
2017-10-27T00:24:17.403Z,1014.30
2017-10-27T00:25:17.370Z,1014.35
2017-10-27T00:26:17.334Z,1014.41
2017-10-27T00:27:17.301Z,1014.37
2017-10-27T00:28:17.266Z,1014.41
2017-10-27T00:29:17.231Z,1014.42
2017-10-27T00:30:17.197Z,1014.45
2017-10-27T00:31:17.163Z,1014.39
2017-10-27T00:32:17.129Z,1014.42
2017-10-27T00:33:17.097Z,1014.47
2017-10-27T00:34:17.060Z,1014.50
2017-10-27T00:35:17.028Z,1014.42
2017-10-27T00:36:16.993Z,1014.48
2017-10-27T00:37:16.959Z,1014.49
2017-10-27T00:38:16.925Z,1014.48
2017-10-27T00:39:16.889Z,1014.51
2017-10-27T00:40:16.858Z,1014.55
2017-10-27T00:41:16.821Z,1014.48
2017-10-27T00:42:16.785Z,1014.49
2017-10-27T00:43:16.757Z,1014.65
2017-10-27T00:44:16.719Z,1014.59
2017-10-27T00:45:16.685Z,1014.62
2017-10-27T00:46:16.650Z,1014.53
2017-10-27T00:47:16.617Z,1014.54
2017-10-27T00:48:16.582Z,1014.55
2017-10-27T00:49:16.549Z,1014.51
2017-10-27T00:50:16.512Z,1014.55
2017-10-27T00:51:16.894Z,1014.49
2017-10-27T00:52:16.448Z,1014.58
2017-10-27T00:53:16.411Z,1014.55
2017-10-27T00:54:16.376Z,1014.48
2017-10-27T00:55:16.341Z,1014.50
2017-10-27T00:56:16.308Z,1014.49
2017-10-27T00:57:16.274Z,1014.48
2017-10-27T00:58:16.232Z,1014.29
2017-10-27T00:59:16.204Z,1014.37
2017-10-27T01:00:16.172Z,1014.39
2017-10-27T01:01:16.137Z,1014.43
2017-10-27T01:02:16.102Z,1014.42
2017-10-27T01:03:16.068Z,1014.39
2017-10-27T01:04:16.035Z,1014.46
2017-10-27T01:05:16.000Z,1014.45
2017-10-27T01:06:15.964Z,1014.46
2017-10-27T01:07:15.932Z,1014.45
2017-10-27T01:08:15.908Z,1014.46
2017-10-27T01:09:15.864Z,1014.45
2017-10-27T01:10:15.830Z,1014.51
2017-10-27T01:11:15.793Z,1014.50
2017-10-27T01:12:15.760Z,1014.45
2017-10-27T01:13:15.730Z,1014.44
2017-10-27T01:14:15.690Z,1014.41
2017-10-27T01:15:15.658Z,1014.47
2017-10-27T01:16:15.624Z,1014.41
2017-10-27T01:17:15.588Z,1014.41
2017-10-27T01:18:15.552Z,1014.45
2017-10-27T01:19:15.519Z,1014.43
2017-10-27T01:20:15.484Z,1014.45
2017-10-27T01:21:15.450Z,1014.38
2017-10-27T01:22:15.417Z,1014.41
2017-10-27T01:23:15.384Z,1014.39
2017-10-27T01:24:15.361Z,1014.48
2017-10-27T01:25:15.313Z,1014.46
2017-10-27T01:26:15.285Z,1014.41
2017-10-27T01:27:15.247Z,1014.43
2017-10-27T01:28:15.212Z,1014.43
2017-10-27T01:29:15.178Z,1014.42
2017-10-27T01:30:15.146Z,1014.42
2017-10-27T01:31:15.109Z,1014.32
2017-10-27T01:32:15.075Z,1014.41
2017-10-27T01:33:15.044Z,1014.35
2017-10-27T01:34:15.006Z,1014.40
2017-10-27T01:35:14.973Z,1014.33
2017-10-27T01:36:14.938Z,1014.36
2017-10-27T01:37:14.904Z,1014.32
2017-10-27T01:38:14.869Z,1014.37
2017-10-27T01:39:14.835Z,1014.36
2017-10-27T01:40:14.800Z,1014.33
2017-10-27T01:41:14.768Z,1014.32
2017-10-27T01:42:14.733Z,1014.31
2017-10-27T01:43:14.696Z,1014.31
2017-10-27T01:44:14.665Z,1014.23
2017-10-27T01:45:14.631Z,1014.26
2017-10-27T01:46:14.594Z,1014.24
2017-10-27T01:47:14.562Z,1014.29
2017-10-27T01:48:14.526Z,1014.27
2017-10-27T01:49:14.496Z,1014.25
2017-10-27T01:50:14.458Z,1014.18
2017-10-27T01:51:14.423Z,1014.24
2017-10-27T01:52:14.389Z,1014.22
2017-10-27T01:53:14.354Z,1014.13
2017-10-27T01:54:14.323Z,1014.18
2017-10-27T01:55:14.287Z,1014.13
2017-10-27T01:56:14.252Z,1014.16
2017-10-27T01:57:14.219Z,1014.10
2017-10-27T01:58:14.299Z,1014.03
2017-10-27T01:59:14.151Z,1014.09
2017-10-27T02:00:14.114Z,1014.03
2017-10-27T02:01:14.081Z,1014.07
2017-10-27T02:02:14.046Z,1014.04
2017-10-27T02:03:14.013Z,1014.07
2017-10-27T02:04:13.979Z,1014.07
2017-10-27T02:05:13.947Z,1014.05
2017-10-27T02:06:13.909Z,1014.08
2017-10-27T02:07:13.877Z,1014.00
2017-10-27T02:08:13.841Z,1014.15
2017-10-27T02:09:14.365Z,1014.21
2017-10-27T02:10:13.778Z,1014.19
2017-10-27T02:11:13.738Z,1014.19
2017-10-27T02:12:13.706Z,1014.21
2017-10-27T02:13:13.671Z,1014.15
2017-10-27T02:14:13.636Z,1014.21
2017-10-27T02:15:13.600Z,1014.15
2017-10-27T02:16:13.567Z,1014.07
2017-10-27T02:17:13.535Z,1014.07
2017-10-27T02:18:13.507Z,1014.15
2017-10-27T02:19:13.462Z,1014.20
2017-10-27T02:20:13.429Z,1014.23
2017-10-27T02:21:13.394Z,1014.14
2017-10-27T02:22:13.360Z,1014.13
2017-10-27T02:23:13.324Z,1014.18
2017-10-27T02:24:13.290Z,1014.20
2017-10-27T02:25:13.256Z,1014.19
2017-10-27T02:26:13.221Z,1014.08
2017-10-27T02:27:13.185Z,1014.16
2017-10-27T02:28:13.153Z,1014.18
2017-10-27T02:29:13.118Z,1014.22
2017-10-27T02:30:13.082Z,1014.16
2017-10-27T02:31:13.050Z,1014.18
2017-10-27T02:32:13.015Z,1014.17
2017-10-27T02:33:12.979Z,1014.20
2017-10-27T02:34:12.943Z,1014.16
2017-10-27T02:35:12.908Z,1014.15
2017-10-27T02:36:12.875Z,1014.16
2017-10-27T02:37:12.838Z,1014.18
2017-10-27T02:38:12.807Z,1014.16
2017-10-27T02:39:12.770Z,1014.20
2017-10-27T02:40:12.740Z,1014.20
2017-10-27T02:41:12.701Z,1014.21
2017-10-27T02:42:12.665Z,1014.19
2017-10-27T02:43:12.630Z,1014.21
2017-10-27T02:44:12.597Z,1014.22
2017-10-27T02:45:12.562Z,1014.22
2017-10-27T02:46:12.527Z,1014.17
2017-10-27T02:47:12.492Z,1014.19
2017-10-27T02:48:12.457Z,1014.17
2017-10-27T02:49:12.423Z,1014.20
2017-10-27T02:50:12.388Z,1014.18
2017-10-27T02:51:12.353Z,1014.20
2017-10-27T02:52:12.319Z,1014.20
2017-10-27T02:53:12.296Z,1014.23
2017-10-27T02:54:12.253Z,1014.21
2017-10-27T02:55:12.215Z,1014.27
2017-10-27T02:56:12.182Z,1014.21
2017-10-27T02:57:12.146Z,1014.21
2017-10-27T02:58:12.109Z,1014.23
2017-10-27T02:59:12.077Z,1014.15
2017-10-27T03:00:12.044Z,1014.29
2017-10-27T03:01:12.007Z,1014.22
2017-10-27T03:02:11.971Z,1014.25
2017-10-27T03:03:11.938Z,1014.26
2017-10-27T03:04:11.902Z,1014.28
2017-10-27T03:05:11.868Z,1014.31
2017-10-27T03:06:11.831Z,1014.34
2017-10-27T03:07:11.796Z,1014.34
2017-10-27T03:08:11.761Z,1014.28
2017-10-27T03:09:11.729Z,1014.29
2017-10-27T03:10:11.692Z,1014.32
2017-10-27T03:11:11.657Z,1014.30
2017-10-27T03:12:11.623Z,1014.29
2017-10-27T03:13:11.602Z,1014.35
2017-10-27T03:14:11.550Z,1014.32
2017-10-27T03:15:11.519Z,1014.37
2017-10-27T03:16:11.498Z,1014.37
2017-10-27T03:17:11.781Z,1014.35
2017-10-27T03:18:11.411Z,1014.38
2017-10-27T03:19:11.380Z,1014.42
2017-10-27T03:20:11.344Z,1014.40
2017-10-27T03:21:11.309Z,1014.46
2017-10-27T03:22:11.274Z,1014.44
2017-10-27T03:23:11.240Z,1014.38
2017-10-27T03:24:11.205Z,1014.42
2017-10-27T03:25:11.171Z,1014.42
2017-10-27T03:26:11.137Z,1014.47
2017-10-27T03:27:11.099Z,1014.37
2017-10-27T03:28:11.065Z,1014.47
2017-10-27T03:29:11.032Z,1014.51
2017-10-27T03:30:10.996Z,1014.39
2017-10-27T03:31:10.962Z,1014.52
2017-10-27T03:32:10.926Z,1014.51
2017-10-27T03:33:10.896Z,1014.47
2017-10-27T03:34:10.865Z,1014.58
2017-10-27T03:35:10.822Z,1014.52
2017-10-27T03:36:10.785Z,1014.60
2017-10-27T03:37:10.750Z,1014.59
2017-10-27T03:38:10.715Z,1014.58
2017-10-27T03:39:10.684Z,1014.48
2017-10-27T03:40:10.646Z,1014.55
2017-10-27T03:41:10.613Z,1014.54
2017-10-27T03:42:10.575Z,1014.46
2017-10-27T03:43:10.539Z,1014.63
2017-10-27T03:44:10.663Z,1014.60
2017-10-27T03:45:10.469Z,1014.62
2017-10-27T03:46:10.433Z,1014.60
2017-10-27T03:47:10.399Z,1014.53
2017-10-27T03:48:10.364Z,1014.47
2017-10-27T03:49:10.329Z,1014.51
2017-10-27T03:50:10.304Z,1014.46
2017-10-27T03:51:10.257Z,1014.44
2017-10-27T03:52:10.219Z,1014.57
2017-10-27T03:53:10.189Z,1014.58
2017-10-27T03:54:10.152Z,1014.62
2017-10-27T03:55:10.119Z,1014.62
2017-10-27T03:56:10.086Z,1014.65
2017-10-27T03:57:10.052Z,1014.59
2017-10-27T03:58:10.014Z,1014.67
2017-10-27T03:59:09.980Z,1014.62
2017-10-27T04:00:09.944Z,1014.65
2017-10-27T04:01:09.916Z,1014.61
2017-10-27T04:02:09.875Z,1014.62
2017-10-27T04:03:09.839Z,1014.69
2017-10-27T04:04:09.805Z,1014.73
2017-10-27T04:05:09.774Z,1014.64
2017-10-27T04:06:09.738Z,1014.74
2017-10-27T04:07:09.699Z,1014.75
2017-10-27T04:08:09.669Z,1014.70
2017-10-27T04:09:09.630Z,1014.67
2017-10-27T04:10:09.594Z,1014.61
2017-10-27T04:11:10.169Z,1014.60
2017-10-27T04:12:09.524Z,1014.55
2017-10-27T04:13:09.492Z,1014.62
2017-10-27T04:14:09.553Z,1014.63
2017-10-27T04:15:09.419Z,1014.70
2017-10-27T04:16:09.552Z,1014.66
2017-10-27T04:17:09.551Z,1014.72
2017-10-27T04:18:09.314Z,1014.71
2017-10-27T04:19:09.281Z,1014.67
2017-10-27T04:20:09.556Z,1014.64
2017-10-27T04:21:09.209Z,1014.60
2017-10-27T04:22:09.175Z,1014.61
2017-10-27T04:23:09.139Z,1014.72
2017-10-27T04:24:09.108Z,1014.71
2017-10-27T04:25:09.071Z,1014.68
2017-10-27T04:26:09.037Z,1014.53
2017-10-27T04:27:09.001Z,1014.53
2017-10-27T04:28:08.965Z,1014.65
2017-10-27T04:29:08.934Z,1014.61
2017-10-27T04:30:08.895Z,1014.75
2017-10-27T04:31:08.861Z,1014.78
2017-10-27T04:32:08.827Z,1014.85
2017-10-27T04:33:08.794Z,1014.79
2017-10-27T04:34:08.757Z,1014.79
2017-10-27T04:35:08.721Z,1014.78
2017-10-27T04:36:08.687Z,1014.66
2017-10-27T04:37:08.651Z,1014.78
2017-10-27T04:38:08.617Z,1014.86
2017-10-27T04:39:08.583Z,1014.90
2017-10-27T04:40:08.546Z,1014.85
2017-10-27T04:41:08.514Z,1014.91
2017-10-27T04:42:08.478Z,1014.88
2017-10-27T04:43:08.443Z,1014.84
2017-10-27T04:44:08.408Z,1014.87
2017-10-27T04:45:08.371Z,1014.79
2017-10-27T04:46:08.419Z,1014.87
2017-10-27T04:47:08.304Z,1014.88
2017-10-27T04:48:08.267Z,1014.87
2017-10-27T04:49:08.233Z,1014.91
2017-10-27T04:50:08.209Z,1014.91
2017-10-27T04:51:08.160Z,1014.88
2017-10-27T04:52:08.129Z,1014.94
2017-10-27T04:53:08.093Z,1014.84
2017-10-27T04:54:08.540Z,1014.99
2017-10-27T04:55:08.025Z,1014.88
2017-10-27T04:56:07.988Z,1014.81
2017-10-27T04:57:07.953Z,1014.90
2017-10-27T04:58:07.918Z,1014.95
2017-10-27T04:59:07.883Z,1014.92
2017-10-27T05:00:07.848Z,1014.91
2017-10-27T05:01:07.813Z,1014.90
2017-10-27T05:02:07.779Z,1014.87
2017-10-27T05:03:07.744Z,1014.88
2017-10-27T05:04:07.708Z,1014.87
2017-10-27T05:05:07.674Z,1014.82
2017-10-27T05:06:07.638Z,1014.89
2017-10-27T05:07:07.603Z,1014.83
2017-10-27T05:08:07.576Z,1014.93
2017-10-27T05:09:07.532Z,1014.93
2017-10-27T05:10:07.498Z,1014.97
2017-10-27T05:11:07.463Z,1014.89
2017-10-27T05:12:07.428Z,1014.91
2017-10-27T05:13:07.393Z,1014.97
2017-10-27T05:14:07.357Z,1014.98
2017-10-27T05:15:07.322Z,1014.98
2017-10-27T05:16:07.288Z,1015.01
2017-10-27T05:17:07.692Z,1015.00
2017-10-27T05:18:07.215Z,1015.05
2017-10-27T05:19:07.182Z,1015.07
2017-10-27T05:20:07.147Z,1015.10
2017-10-27T05:21:07.113Z,1015.16
2017-10-27T05:22:07.083Z,1015.17
2017-10-27T05:23:07.039Z,1015.08
2017-10-27T05:24:07.001Z,1015.15
2017-10-27T05:25:06.971Z,1015.21
2017-10-27T05:26:06.936Z,1015.18
2017-10-27T05:27:06.901Z,1015.14
2017-10-27T05:28:06.866Z,1015.18
2017-10-27T05:29:06.829Z,1015.12
2017-10-27T05:30:06.794Z,1015.20
2017-10-27T05:31:06.763Z,1015.20
2017-10-27T05:32:06.724Z,1015.15
2017-10-27T05:33:06.683Z,1015.18
2017-10-27T05:34:06.655Z,1015.23
2017-10-27T05:35:06.619Z,1015.23
2017-10-27T05:36:06.583Z,1015.29
2017-10-27T05:37:06.550Z,1015.22
2017-10-27T05:38:06.515Z,1015.29
2017-10-27T05:39:06.478Z,1015.33
2017-10-27T05:40:06.445Z,1015.27
2017-10-27T05:41:06.407Z,1015.34
2017-10-27T05:42:06.371Z,1015.36
2017-10-27T05:43:06.338Z,1015.27
2017-10-27T05:44:06.302Z,1015.32
2017-10-27T05:45:06.269Z,1015.44
2017-10-27T05:46:06.342Z,1015.38
2017-10-27T05:47:06.195Z,1015.35
2017-10-27T05:48:06.161Z,1015.38
2017-10-27T05:49:06.127Z,1015.44
2017-10-27T05:50:06.091Z,1015.41
2017-10-27T05:51:06.056Z,1015.41
2017-10-27T05:52:06.021Z,1015.53
2017-10-27T05:53:05.982Z,1015.55
2017-10-27T05:54:05.949Z,1015.60
2017-10-27T05:55:05.914Z,1015.60
2017-10-27T05:56:05.879Z,1015.54
2017-10-27T05:57:05.846Z,1015.64
2017-10-27T05:58:05.807Z,1015.68
2017-10-27T05:59:05.774Z,1015.68
2017-10-27T06:00:05.738Z,1015.69
2017-10-27T06:01:05.704Z,1015.68
2017-10-27T06:02:05.667Z,1015.67
2017-10-27T06:03:05.631Z,1015.67
2017-10-27T06:04:05.597Z,1015.66
2017-10-27T06:05:05.562Z,1015.69
2017-10-27T06:06:05.528Z,1015.74
2017-10-27T06:07:05.525Z,1015.59
2017-10-27T06:08:05.458Z,1015.71
2017-10-27T06:09:05.421Z,1015.74
2017-10-27T06:10:05.664Z,1015.72
2017-10-27T06:11:05.350Z,1015.76
2017-10-27T06:12:05.315Z,1015.80
2017-10-27T06:13:05.279Z,1015.77
2017-10-27T06:14:05.244Z,1015.79
2017-10-27T06:15:05.210Z,1015.81
2017-10-27T06:16:05.174Z,1015.82
2017-10-27T06:17:05.139Z,1015.83
2017-10-27T06:18:05.102Z,1015.87
2017-10-27T06:19:05.066Z,1015.84
2017-10-27T06:20:05.031Z,1015.82
2017-10-27T06:21:04.995Z,1015.86
2017-10-27T06:22:04.962Z,1015.83
2017-10-27T06:23:05.558Z,1015.85
2017-10-27T06:24:05.563Z,1015.88
2017-10-27T06:25:05.562Z,1015.76
2017-10-27T06:26:04.820Z,1015.85
2017-10-27T06:27:04.785Z,1015.97
2017-10-27T06:28:04.750Z,1016.02
2017-10-27T06:29:04.714Z,1015.99
2017-10-27T06:30:04.677Z,1015.96
2017-10-27T06:31:04.644Z,1016.04
2017-10-27T06:32:04.621Z,1016.06
2017-10-27T06:33:04.573Z,1016.15
2017-10-27T06:34:04.535Z,1016.18
2017-10-27T06:35:04.501Z,1016.13
2017-10-27T06:36:04.466Z,1016.14
2017-10-27T06:37:04.430Z,1016.18
2017-10-27T06:38:04.396Z,1016.23
2017-10-27T06:39:04.361Z,1016.20
2017-10-27T06:40:04.326Z,1016.24
2017-10-27T06:41:04.289Z,1016.21
2017-10-27T06:42:04.253Z,1016.25
2017-10-27T06:43:04.223Z,1016.28
2017-10-27T06:44:04.182Z,1016.33
2017-10-27T06:45:04.150Z,1016.26
2017-10-27T06:46:04.111Z,1016.32
2017-10-27T06:47:04.080Z,1016.32
2017-10-27T06:48:04.042Z,1016.36
2017-10-27T06:49:04.006Z,1016.44
2017-10-27T06:50:03.971Z,1016.39
2017-10-27T06:51:03.935Z,1016.47
2017-10-27T06:52:03.908Z,1016.46
2017-10-27T06:53:03.865Z,1016.45
2017-10-27T06:54:03.829Z,1016.53
2017-10-27T06:55:03.795Z,1016.58
2017-10-27T06:56:03.760Z,1016.58
2017-10-27T06:57:03.723Z,1016.67
2017-10-27T06:58:03.686Z,1016.71
2017-10-27T06:59:03.653Z,1016.63
2017-10-27T07:00:03.620Z,1016.73
2017-10-27T07:01:03.582Z,1016.59
2017-10-27T07:02:03.547Z,1016.71
2017-10-27T07:03:03.511Z,1016.75
2017-10-27T07:04:03.477Z,1016.66
2017-10-27T07:05:03.441Z,1016.74
2017-10-27T07:06:03.405Z,1016.74
2017-10-27T07:07:03.370Z,1016.68
2017-10-27T07:08:03.337Z,1016.75
2017-10-27T07:09:03.300Z,1016.68
2017-10-27T07:10:03.267Z,1016.66
2017-10-27T07:11:03.230Z,1016.64
2017-10-27T07:12:03.193Z,1016.75
2017-10-27T07:13:03.157Z,1016.72
2017-10-27T07:14:03.138Z,1016.70
2017-10-27T07:15:03.087Z,1016.79
2017-10-27T07:16:03.054Z,1016.72
2017-10-27T07:17:03.018Z,1016.80
2017-10-27T07:18:02.979Z,1016.83
2017-10-27T07:19:02.949Z,1016.81
2017-10-27T07:20:02.915Z,1016.77
2017-10-27T07:21:02.876Z,1016.80
2017-10-27T07:22:02.840Z,1016.86
2017-10-27T07:23:02.805Z,1016.82
2017-10-27T07:24:03.140Z,1016.88
2017-10-27T07:25:02.736Z,1016.88
2017-10-27T07:26:02.700Z,1016.89
2017-10-27T07:27:02.665Z,1016.95
2017-10-27T07:28:02.630Z,1016.96
2017-10-27T07:29:02.595Z,1017.03
2017-10-27T07:30:02.559Z,1017.10
2017-10-27T07:31:02.525Z,1017.09
2017-10-27T07:32:02.490Z,1017.01
2017-10-27T07:33:02.466Z,1017.07
2017-10-27T07:34:02.420Z,1017.07
2017-10-27T07:35:02.385Z,1017.09
2017-10-27T07:36:02.351Z,1017.18
2017-10-27T07:37:02.320Z,1017.18
2017-10-27T07:38:02.281Z,1017.17
2017-10-27T07:39:02.245Z,1017.17
2017-10-27T07:40:02.211Z,1017.17
2017-10-27T07:41:02.177Z,1017.21
2017-10-27T07:42:02.140Z,1017.22
2017-10-27T07:43:02.105Z,1017.28
2017-10-27T07:44:02.071Z,1017.29
2017-10-27T07:45:02.037Z,1017.29
2017-10-27T07:46:02.001Z,1017.25
2017-10-27T07:47:01.967Z,1017.41
2017-10-27T07:48:01.933Z,1017.34
2017-10-27T07:49:01.897Z,1017.44
2017-10-27T07:50:01.862Z,1017.34
2017-10-27T07:51:01.833Z,1017.44
2017-10-27T07:52:01.793Z,1017.46
2017-10-27T07:53:01.762Z,1017.47
2017-10-27T07:54:01.723Z,1017.56
2017-10-27T07:55:01.688Z,1017.48
2017-10-27T07:56:01.659Z,1017.48
2017-10-27T07:57:01.620Z,1017.49
2017-10-27T07:58:01.584Z,1017.44
2017-10-27T07:59:01.551Z,1017.44
2017-10-27T08:00:01.515Z,1017.56
2017-10-27T08:01:01.482Z,1017.60
2017-10-27T08:02:01.446Z,1017.76
2017-10-27T08:03:01.411Z,1017.73
2017-10-27T08:04:01.378Z,1017.92
2017-10-27T08:05:01.344Z,1017.80
2017-10-27T08:06:01.310Z,1017.81
2017-10-27T08:07:01.277Z,1017.93
2017-10-27T08:08:01.244Z,1017.82
2017-10-27T08:09:01.212Z,1017.83
2017-10-27T08:10:01.177Z,1017.92
2017-10-27T08:11:01.147Z,1017.76
2017-10-27T08:12:01.179Z,1017.77
2017-10-27T08:13:01.086Z,1017.78
2017-10-27T08:14:01.052Z,1017.80
2017-10-27T08:15:01.024Z,1017.94
2017-10-27T08:16:00.988Z,1018.02
2017-10-27T08:17:00.956Z,1018.04
2017-10-27T08:18:00.930Z,1018.11
2017-10-27T08:19:00.894Z,1018.18
2017-10-27T08:20:00.863Z,1018.10
2017-10-27T08:21:00.832Z,1018.07
2017-10-27T08:22:00.809Z,1018.17
2017-10-27T08:23:00.771Z,1018.07
2017-10-27T08:24:00.737Z,1018.07
2017-10-27T08:25:00.714Z,1018.18
2017-10-27T08:26:00.693Z,1018.18
2017-10-27T08:27:00.662Z,1018.25
2017-10-27T08:28:00.632Z,1018.14
2017-10-27T08:29:00.603Z,1018.24
2017-10-27T08:30:00.573Z,1018.32
2017-10-27T08:31:00.555Z,1018.31
2017-10-27T08:32:00.523Z,1018.35
2017-10-27T08:33:00.497Z,1018.14
2017-10-27T08:34:00.472Z,1018.06
2017-10-27T08:35:00.443Z,1018.13
2017-10-27T08:36:00.418Z,1018.16
2017-10-27T08:37:00.393Z,1018.25
2017-10-27T08:38:00.366Z,1018.24
2017-10-27T08:39:00.336Z,1018.27
2017-10-27T08:40:00.321Z,1018.31
2017-10-27T08:41:00.292Z,1018.24
2017-10-27T08:42:00.266Z,1018.31
2017-10-27T08:43:00.242Z,1018.30
2017-10-27T08:44:00.216Z,1018.19
2017-10-27T08:45:00.193Z,1018.29
2017-10-27T08:46:00.167Z,1018.33
2017-10-27T08:47:00.144Z,1018.34
2017-10-27T08:48:00.110Z,1018.09
2017-10-27T08:49:00.094Z,1018.37
2017-10-27T08:50:00.069Z,1018.33
2017-10-27T08:51:00.050Z,1018.26
2017-10-27T08:52:00.017Z,1018.31
2017-10-27T08:52:59.994Z,1018.54
2017-10-27T08:53:59.970Z,1018.55
2017-10-27T08:54:59.950Z,1018.55
2017-10-27T08:55:59.920Z,1018.36
2017-10-27T08:56:59.896Z,1018.42
2017-10-27T08:57:59.870Z,1018.33
2017-10-27T08:58:59.843Z,1018.34
2017-10-27T08:59:59.820Z,1018.60
2017-10-27T09:00:59.794Z,1018.62
2017-10-27T09:01:59.773Z,1018.67
2017-10-27T09:02:59.744Z,1018.62
2017-10-27T09:03:59.720Z,1018.75
2017-10-27T09:04:59.696Z,1018.53
2017-10-27T09:05:59.672Z,1018.73
2017-10-27T09:06:59.647Z,1018.78
2017-10-27T09:07:59.623Z,1018.84
2017-10-27T09:08:59.599Z,1019.07
2017-10-27T09:09:59.576Z,1018.56
2017-10-27T09:10:59.551Z,1019.40
2017-10-27T09:11:59.539Z,1018.69
2017-10-27T09:12:59.505Z,1019.44
2017-10-27T09:13:59.480Z,1018.61
2017-10-27T09:14:59.456Z,1019.35
2017-10-27T09:15:59.434Z,1019.43
2017-10-27T09:16:59.408Z,1019.41
2017-10-27T09:17:59.382Z,1019.34
2017-10-27T09:18:59.360Z,1019.42
2017-10-27T09:19:59.337Z,1019.43
2017-10-27T09:20:59.314Z,1019.40
2017-10-27T09:21:59.291Z,1019.53
2017-10-27T09:22:59.496Z,1018.69
2017-10-27T09:23:59.251Z,1018.86
2017-10-27T09:24:59.221Z,1019.84
2017-10-27T09:25:59.199Z,1018.82
2017-10-27T09:26:59.175Z,1019.51
2017-10-27T09:27:59.157Z,1019.37
2017-10-27T09:28:59.129Z,1019.73
2017-10-27T09:29:59.111Z,1019.92
2017-10-27T09:30:59.085Z,1019.96
2017-10-27T09:31:59.061Z,1019.06
2017-10-27T09:32:59.039Z,1018.76
2017-10-27T09:33:59.016Z,1019.14
2017-10-27T09:34:58.990Z,1019.87
2017-10-27T09:35:58.969Z,1021.07
2017-10-27T09:36:58.947Z,1020.45
2017-10-27T09:37:58.922Z,1021.29
2017-10-27T09:38:58.899Z,1021.50
2017-10-27T09:39:58.876Z,1021.32
2017-10-27T09:40:58.858Z,1021.46
2017-10-27T09:41:58.829Z,1021.39
2017-10-27T09:42:58.807Z,1020.04
2017-10-27T09:43:58.784Z,1018.94
2017-10-27T09:44:58.761Z,1018.88
2017-10-27T09:45:58.740Z,1018.97
2017-10-27T09:46:58.718Z,1018.79
2017-10-27T09:47:58.698Z,1018.93
2017-10-27T09:48:58.674Z,1019.05
2017-10-27T09:49:58.644Z,1021.21
2017-10-27T09:50:58.617Z,1019.44
2017-10-27T09:51:58.593Z,1019.23
2017-10-27T09:52:58.612Z,1019.08
2017-10-27T09:53:58.563Z,1019.18
2017-10-27T09:54:58.520Z,1019.38
2017-10-27T09:55:58.492Z,1018.98
2017-10-27T09:56:58.464Z,1019.05
2017-10-27T09:57:58.438Z,1019.16
2017-10-27T09:58:58.410Z,1019.41
2017-10-27T09:59:58.383Z,1019.36
2017-10-27T10:00:58.356Z,1019.13
2017-10-27T10:01:58.329Z,1019.35
2017-10-27T10:02:58.301Z,1019.41
2017-10-27T10:03:58.271Z,1019.31
2017-10-27T10:04:58.245Z,1019.26
2017-10-27T10:05:58.216Z,1019.58
2017-10-27T10:06:58.186Z,1019.34
2017-10-27T10:07:58.160Z,1019.32
2017-10-27T10:08:58.130Z,1019.38
2017-10-27T10:09:58.101Z,1019.32
2017-10-27T10:10:58.073Z,1019.38
2017-10-27T10:11:58.045Z,1021.75
2017-10-27T10:12:58.019Z,1021.68
2017-10-27T10:13:57.986Z,1019.38
2017-10-27T10:14:57.960Z,1019.36
2017-10-27T10:15:57.932Z,1019.42
2017-10-27T10:16:57.903Z,1019.46
2017-10-27T10:17:57.874Z,1021.24
2017-10-27T10:18:57.849Z,1020.92
2017-10-27T10:19:57.817Z,1019.69
2017-10-27T10:20:57.790Z,1020.37
2017-10-27T10:21:57.763Z,1019.98
2017-10-27T10:22:57.738Z,1019.71
2017-10-27T10:23:57.706Z,1019.70
2017-10-27T10:24:57.685Z,1019.66
2017-10-27T10:25:57.653Z,1019.65
2017-10-27T10:26:57.627Z,1019.55
2017-10-27T10:27:57.600Z,1019.56
2017-10-27T10:28:57.571Z,1019.56
2017-10-27T10:29:57.543Z,1019.50
2017-10-27T10:30:57.515Z,1020.16
2017-10-27T10:31:57.491Z,1020.20
2017-10-27T10:32:57.471Z,1020.14
2017-10-27T10:33:57.433Z,1020.29
2017-10-27T10:34:57.410Z,1020.01
2017-10-27T10:35:57.383Z,1020.23
2017-10-27T10:36:57.359Z,1019.52
2017-10-27T10:37:57.335Z,1019.61
2017-10-27T10:38:57.308Z,1019.53
2017-10-27T10:39:57.284Z,1019.43
2017-10-27T10:41:00.066Z,1019.40
2017-10-27T10:41:57.235Z,1019.57
2017-10-27T10:42:57.210Z,1020.28
2017-10-27T10:43:57.183Z,1020.21
2017-10-27T10:44:57.155Z,1020.14
2017-10-27T10:45:57.130Z,1020.21
2017-10-27T10:46:57.110Z,1020.24
2017-10-27T10:47:57.074Z,1020.15
2017-10-27T10:48:57.217Z,1020.14
2017-10-27T10:49:57.038Z,1019.61
2017-10-27T10:50:57.016Z,1020.26
2017-10-27T10:51:56.988Z,1019.66
2017-10-27T10:52:56.963Z,1019.52
2017-10-27T10:53:56.941Z,1019.64
2017-10-27T10:54:56.915Z,1020.16
2017-10-27T10:55:56.946Z,1019.67
2017-10-27T10:56:56.868Z,1019.65
2017-10-27T10:57:56.853Z,1020.21
2017-10-27T10:58:56.819Z,1020.25
2017-10-27T10:59:56.797Z,1019.55
2017-10-27T11:00:56.771Z,1019.63
2017-10-27T11:01:56.745Z,1019.55
2017-10-27T11:02:56.722Z,1019.79
2017-10-27T11:03:56.703Z,1019.87
2017-10-27T11:04:57.080Z,1019.52
2017-10-27T11:05:56.647Z,1019.51
2017-10-27T11:06:56.619Z,1019.61
2017-10-27T11:07:56.595Z,1019.62
2017-10-27T11:08:56.567Z,1019.50
2017-10-27T11:09:56.540Z,1019.54
2017-10-27T11:10:56.514Z,1019.55
2017-10-27T11:11:56.491Z,1019.54
2017-10-27T11:12:56.460Z,1019.46
2017-10-27T11:13:56.430Z,1019.51
2017-10-27T11:14:56.401Z,1019.48
2017-10-27T11:15:56.376Z,1019.49
2017-10-27T11:16:56.346Z,1019.50
2017-10-27T11:17:56.315Z,1019.62
2017-10-27T11:18:56.286Z,1019.59
2017-10-27T11:19:56.255Z,1019.68
2017-10-27T11:20:56.227Z,1019.83
2017-10-27T11:21:56.193Z,1019.67
2017-10-27T11:22:56.168Z,1019.63
2017-10-27T11:23:56.140Z,1019.64
2017-10-27T11:24:56.112Z,1019.67
2017-10-27T11:25:56.081Z,1019.67
2017-10-27T11:26:56.053Z,1019.67
2017-10-27T11:27:56.024Z,1019.68
2017-10-27T11:28:55.995Z,1019.78
2017-10-27T11:29:55.965Z,1019.62
2017-10-27T11:30:55.935Z,1019.64
2017-10-27T11:31:56.533Z,1019.93
2017-10-27T11:32:55.880Z,1019.63
2017-10-27T11:33:55.852Z,1019.72
2017-10-27T11:34:55.819Z,1020.00
2017-10-27T11:35:55.794Z,1020.08
2017-10-27T11:36:55.769Z,1020.00
2017-10-27T11:37:55.739Z,1020.00
2017-10-27T11:38:55.726Z,1019.75
2017-10-27T11:39:55.694Z,1019.61
2017-10-27T11:40:55.665Z,1019.50
2017-10-27T11:41:55.640Z,1019.69
2017-10-27T11:42:55.615Z,1019.72
2017-10-27T11:43:55.599Z,1019.65
2017-10-27T11:44:55.570Z,1019.64
2017-10-27T11:45:55.542Z,1019.63
2017-10-27T11:46:55.521Z,1019.62
2017-10-27T11:47:55.494Z,1019.60
2017-10-27T11:48:55.469Z,1019.54
2017-10-27T11:49:55.444Z,1019.48
2017-10-27T11:50:55.419Z,1019.54
2017-10-27T11:51:55.395Z,1019.68
2017-10-27T11:52:55.374Z,1019.80
2017-10-27T11:53:55.342Z,1019.62
2017-10-27T11:54:55.315Z,1019.84
2017-10-27T11:55:55.292Z,1019.75
2017-10-27T11:56:55.266Z,1019.56
2017-10-27T11:57:55.241Z,1019.54
2017-10-27T11:58:55.216Z,1019.50
2017-10-27T11:59:55.193Z,1019.46
2017-10-27T12:00:55.167Z,1019.45
2017-10-27T12:01:55.142Z,1019.45
2017-10-27T12:02:55.262Z,1019.46
2017-10-27T12:03:55.091Z,1019.51
2017-10-27T12:04:55.233Z,1019.38